Time;durP1;ratioP1;P1;durP2;ratioP2;P2;SDS_P1;SDS_P2;PMS_P1;PMS_P2;Temp;Humidity;BMP_temperature;BMP_pressure;BME280_temperature;BME280_humidity;BME280_pressure;Samples;Min_cycle;Max_cycle;Signal;HPM_P1;HPM_P2
2022/09/26 00:02:17;;;;;;;10.75;6.68;;;;;;;-140.66;100.00;55571.53;5043162;28;20043;-72
2022/09/26 00:05:03;;;;;;;10.35;6.70;;;;;;;-140.66;100.00;55571.53;5057420;28;20029;-72
2022/09/26 00:07:49;;;;;;;11.50;6.50;;;;;;;-140.66;100.00;55571.53;5043677;28;20032;-72
2022/09/26 00:10:34;;;;;;;8.90;6.28;;;;;;;-140.66;100.00;55571.53;5057603;28;20036;-71
2022/09/26 00:13:20;;;;;;;9.40;6.35;;;;;;;-140.66;100.00;55571.53;5056882;28;20025;-71
2022/09/26 00:16:07;;;;;;;7.78;5.88;;;;;;;-140.66;100.00;55571.53;5057819;28;20112;-71
2022/09/26 00:18:55;;;;;;;8.45;5.95;;;;;;;-140.66;100.00;55571.53;5057391;28;20091;-71
2022/09/26 00:21:40;;;;;;;7.13;6.15;;;;;;;-140.66;100.00;55571.53;5058345;28;20047;-71
2022/09/26 00:24:26;;;;;;;8.02;5.82;;;;;;;-140.66;100.00;55571.53;5043048;28;20021;-71
2022/09/26 00:27:12;;;;;;;8.25;5.70;;;;;;;-140.66;100.00;55571.53;5056905;28;20024;-71
2022/09/26 00:29:58;;;;;;;6.70;5.78;;;;;;;-140.66;100.00;55571.53;5056822;28;20024;-72
2022/09/26 00:32:44;;;;;;;7.03;5.80;;;;;;;-140.66;100.00;55571.53;5045832;28;20065;-71
2022/09/26 00:35:29;;;;;;;6.70;5.97;;;;;;;-140.66;100.00;55571.53;5065784;28;20025;-72
2022/09/26 00:38:15;;;;;;;8.68;5.85;;;;;;;-140.66;100.00;55571.53;5057316;28;20021;-71
2022/09/26 00:41:02;;;;;;;7.50;5.78;;;;;;;-140.66;100.00;55571.53;5064727;28;20032;-71
2022/09/26 00:43:53;;;;;;;7.68;6.10;;;;;;;-140.66;100.00;55571.53;5056367;28;20032;-72
2022/09/26 00:46:41;;;;;;;7.15;6.07;;;;;;;-140.66;100.00;55571.53;5057719;28;20044;-71
2022/09/26 00:49:30;;;;;;;7.13;6.13;;;;;;;-140.66;100.00;55571.53;5057928;28;20461;-72
2022/09/26 00:52:31;;;;;;;7.25;6.10;;;;;;;-140.66;100.00;55571.53;5042899;28;20083;-72
2022/09/26 00:55:21;;;;;;;7.65;6.43;;;;;;;-140.66;100.00;55571.53;5042050;28;20389;-71
2022/09/26 00:58:15;;;;;;;8.10;5.80;;;;;;;-140.66;100.00;55571.53;5057078;28;20033;-71
2022/09/26 01:01:01;;;;;;;7.40;5.95;;;;;;;-140.66;100.00;55571.53;5042459;28;20331;-70
2022/09/26 01:03:49;;;;;;;11.45;6.40;;;;;;;-140.66;100.00;55571.53;5055658;28;20074;-73
2022/09/26 01:06:35;;;;;;;9.52;7.10;;;;;;;-140.66;100.00;55571.53;5057630;28;20029;-72
2022/09/26 01:09:21;;;;;;;8.45;6.13;;;;;;;-140.66;100.00;55571.53;5055572;28;20449;-71
2022/09/26 01:12:09;;;;;;;11.55;5.85;;;;;;;-140.66;100.00;55571.53;5057618;28;20066;-71
2022/09/26 01:14:56;;;;;;;9.23;5.40;;;;;;;-140.66;100.00;55571.53;5056182;28;20127;-72
2022/09/26 01:17:44;;;;;;;7.47;5.25;;;;;;;-140.66;100.00;55571.53;5057015;28;20025;-72
2022/09/26 01:21:11;;;;;;;5.78;5.18;;;;;;;-140.66;100.00;55571.53;5057293;28;20040;-72
2022/09/26 01:24:34;;;;;;;5.75;4.93;;;;;;;-140.66;100.00;55571.53;5042191;28;20108;-73
2022/09/26 01:27:42;;;;;;;7.75;5.25;;;;;;;-140.66;100.00;55571.53;5042310;28;20117;-73
2022/09/26 01:30:42;;;;;;;7.10;5.38;;;;;;;-140.66;100.00;55571.53;5041287;28;20021;-73
2022/09/26 01:33:40;;;;;;;8.27;5.40;;;;;;;-140.66;100.00;55571.53;5057160;28;20036;-72
2022/09/26 01:36:41;;;;;;;7.63;5.10;;;;;;;-140.66;100.00;55571.53;5055906;28;20139;-74
2022/09/26 01:39:53;;;;;;;5.53;4.90;;;;;;;-140.66;100.00;55571.53;5055359;28;20342;-73
2022/09/26 01:42:58;;;;;;;5.63;4.93;;;;;;;-140.66;100.00;55571.53;5056015;28;20033;-73
2022/09/26 01:45:48;;;;;;;6.05;4.72;;;;;;;-140.66;100.00;55571.53;5055411;28;20029;-71
2022/09/26 01:48:41;;;;;;;7.38;5.32;;;;;;;-140.66;100.00;55571.53;5055644;28;20094;-73
2022/09/26 01:51:35;;;;;;;8.07;5.50;;;;;;;-140.66;100.00;55571.53;5055770;28;20504;-74
2022/09/26 01:54:36;;;;;;;5.20;4.70;;;;;;;-140.66;100.00;55571.53;5056469;28;20063;-73
2022/09/26 01:57:28;;;;;;;7.32;5.18;;;;;;;-140.66;100.00;55571.53;5055044;28;20048;-72
2022/09/26 02:00:14;;;;;;;6.07;5.47;;;;;;;-140.66;100.00;55571.53;5055923;28;20040;-71
2022/09/26 02:03:04;;;;;;;5.90;5.30;;;;;;;-140.66;100.00;55571.53;5056391;28;20112;-72
2022/09/26 02:05:57;;;;;;;8.57;5.80;;;;;;;-140.66;100.00;55571.53;5040670;28;20024;-72
2022/09/26 02:08:55;;;;;;;8.13;6.40;;;;;;;-140.66;100.00;55571.53;5056491;28;20393;-72
2022/09/26 02:11:44;;;;;;;7.90;5.80;;;;;;;-140.66;100.00;55571.53;5040460;28;20021;-73
2022/09/26 02:14:33;;;;;;;8.32;7.05;;;;;;;-140.66;100.00;55571.53;5055884;28;20029;-72
2022/09/26 02:17:26;;;;;;;6.78;6.10;;;;;;;-140.66;100.00;55571.53;5040484;28;20025;-72
2022/09/26 02:20:21;;;;;;;5.97;5.38;;;;;;;-140.66;100.00;55571.53;5055210;28;20029;-72
2022/09/26 02:23:07;;;;;;;7.10;5.57;;;;;;;-140.66;100.00;55571.53;5056191;28;20021;-72
2022/09/26 02:25:53;;;;;;;8.05;5.43;;;;;;;-140.66;100.00;55571.53;5055836;28;20035;-72
2022/09/26 02:28:39;;;;;;;6.13;4.88;;;;;;;-140.66;100.00;55571.53;5054947;28;20028;-71
2022/09/26 02:31:28;;;;;;;7.55;6.00;;;;;;;-140.66;100.00;55571.53;5055728;28;20071;-72
2022/09/26 02:34:14;;;;;;;8.25;5.30;;;;;;;-140.66;100.00;55571.53;5041767;28;20057;-71
2022/09/26 02:37:00;;;;;;;6.32;5.35;;;;;;;-140.66;100.00;55571.53;5054922;28;20061;-72
2022/09/26 02:39:48;;;;;;;5.63;5.00;;;;;;;-140.66;100.00;55571.53;5054559;28;20021;-72
2022/09/26 02:42:52;;;;;;;7.22;5.30;;;;;;;-140.66;100.00;55571.53;5055763;28;20033;-71
2022/09/26 02:45:49;;;;;;;6.30;5.57;;;;;;;-140.66;100.00;55571.53;5053662;28;20429;-72
2022/09/26 02:48:44;;;;;;;8.85;5.28;;;;;;;-140.66;100.00;55571.53;5040334;28;20449;-72
2022/09/26 02:52:18;;;;;;;9.15;5.93;;;;;;;-140.66;100.00;55571.53;5040358;28;20437;-73
2022/09/26 02:55:04;;;;;;;7.32;4.93;;;;;;;-140.66;100.00;55571.53;4962323;28;20054;-71
2022/09/26 02:57:52;;;;;;;6.50;5.68;;;;;;;-140.66;100.00;55571.53;5054396;28;20028;-72
2022/09/26 03:00:44;;;;;;;9.15;6.93;;;;;;;-140.66;100.00;55571.53;5053937;28;20120;-72
2022/09/26 03:03:36;;;;;;;9.52;7.20;;;;;;;-140.66;100.00;55571.53;5039981;28;20028;-72
2022/09/26 03:06:28;;;;;;;8.85;5.65;;;;;;;-140.66;100.00;55571.53;5055261;28;20400;-73
2022/09/26 03:09:15;;;;;;;8.65;6.28;;;;;;;-140.66;100.00;55571.53;5054244;28;20029;-72
2022/09/26 03:12:05;;;;;;;6.68;5.68;;;;;;;-140.66;100.00;55571.53;5055013;28;20025;-72
2022/09/26 03:14:52;;;;;;;7.97;5.57;;;;;;;-140.66;100.00;55571.53;5053917;28;20025;-72
2022/09/26 03:17:46;;;;;;;7.78;5.57;;;;;;;-140.66;100.00;55571.53;5039571;28;20040;-72
2022/09/26 03:20:32;;;;;;;8.68;5.90;;;;;;;-140.66;100.00;55571.53;5039026;28;20162;-72
2022/09/26 03:23:24;;;;;;;7.18;5.55;;;;;;;-140.66;100.00;55571.53;5054349;28;20025;-73
2022/09/26 03:26:12;;;;;;;6.65;5.93;;;;;;;-140.66;100.00;55571.53;5057136;28;20024;-72
2022/09/26 03:28:58;;;;;;;8.13;5.95;;;;;;;-140.66;100.00;55571.53;5061750;28;20381;-71
2022/09/26 03:31:45;;;;;;;6.40;5.72;;;;;;;-140.66;100.00;55571.53;5061381;28;20464;-73
2022/09/26 03:34:30;;;;;;;7.35;6.07;;;;;;;-140.66;100.00;55571.53;5061360;28;20036;-71
2022/09/26 03:37:16;;;;;;;14.27;6.93;;;;;;;-140.66;100.00;55571.53;5046416;28;20032;-72
2022/09/26 03:40:04;;;;;;;11.18;6.85;;;;;;;-140.66;100.00;55571.53;5059969;28;20025;-71
2022/09/26 03:42:50;;;;;;;10.43;6.80;;;;;;;-140.66;100.00;55571.53;5046391;28;20039;-72
2022/09/26 03:45:36;;;;;;;12.30;8.75;;;;;;;-140.66;100.00;55571.53;5046097;28;20025;-72
2022/09/26 03:48:22;;;;;;;11.00;7.38;;;;;;;-140.66;100.00;55571.53;5060753;28;20028;-73
2022/09/26 03:51:10;;;;;;;9.88;7.93;;;;;;;-140.66;100.00;55571.53;5060945;28;20072;-72
2022/09/26 03:53:56;;;;;;;9.77;7.03;;;;;;;-140.66;100.00;55571.53;5062033;28;20052;-71
2022/09/26 03:56:42;;;;;;;8.75;6.88;;;;;;;-140.66;100.00;55571.53;5046359;28;20531;-73
2022/09/26 03:59:27;;;;;;;10.07;6.80;;;;;;;-140.66;100.00;55571.53;5062679;28;20036;-72
2022/09/26 04:02:13;;;;;;;10.60;6.55;;;;;;;-140.66;100.00;55571.53;5060602;28;20111;-72
2022/09/26 04:04:59;;;;;;;9.30;6.70;;;;;;;-140.66;100.00;55571.53;5060920;28;20035;-72
2022/09/26 04:07:46;;;;;;;10.75;7.05;;;;;;;-140.66;100.00;55571.53;5062275;28;20025;-71
2022/09/26 04:10:32;;;;;;;8.90;6.47;;;;;;;-140.66;100.00;55571.53;5061867;28;20035;-73
2022/09/26 04:13:17;;;;;;;16.08;8.27;;;;;;;-140.66;100.00;55571.53;5060235;28;20033;-72
2022/09/26 04:16:06;;;;;;;16.35;8.85;;;;;;;-140.66;100.00;55571.53;5060447;28;20075;-72
2022/09/26 04:18:56;;;;;;;13.32;7.45;;;;;;;-140.66;100.00;55571.53;5061243;28;20025;-72
2022/09/26 04:21:41;;;;;;;19.13;8.35;;;;;;;-140.66;100.00;55571.53;5047204;28;20438;-73
2022/09/26 04:24:27;;;;;;;16.00;8.52;;;;;;;-140.66;100.00;55571.53;5061401;28;20039;-74
2022/09/26 04:27:14;;;;;;;16.58;7.90;;;;;;;-140.66;100.00;55571.53;5046199;28;20039;-72
2022/09/26 04:29:59;;;;;;;11.85;8.20;;;;;;;-140.66;100.00;55571.53;5059873;28;20025;-73
2022/09/26 04:32:45;;;;;;;15.57;7.97;;;;;;;-140.66;100.00;55571.53;5061212;28;20086;-71
2022/09/26 04:35:31;;;;;;;11.75;7.85;;;;;;;-140.66;100.00;55571.53;5046003;28;20539;-71
2022/09/26 04:38:17;;;;;;;17.73;8.80;;;;;;;-140.66;100.00;55571.53;5059330;28;20029;-71
2022/09/26 04:41:09;;;;;;;16.65;8.65;;;;;;;-140.66;100.00;55571.53;5057678;28;20040;-71
2022/09/26 04:43:56;;;;;;;24.25;8.18;;;;;;;-140.66;100.00;55571.53;5056521;28;20582;-71
2022/09/26 04:46:43;;;;;;;14.02;7.38;;;;;;;-140.66;100.00;55571.53;5058001;28;20036;-71
2022/09/26 04:49:29;;;;;;;11.00;6.25;;;;;;;-140.66;100.00;55571.53;5056418;28;20072;-70
2022/09/26 04:52:15;;;;;;;10.38;7.20;;;;;;;-140.66;100.00;55571.53;5042635;28;20064;-71
2022/09/26 04:55:02;;;;;;;12.05;8.07;;;;;;;-140.66;100.00;55571.53;5041560;28;20136;-72
2022/09/26 04:57:48;;;;;;;17.85;7.20;;;;;;;-140.66;100.00;55571.53;5057400;28;20086;-71
2022/09/26 05:00:34;;;;;;;19.45;7.80;;;;;;;-140.66;100.00;55571.53;5055436;28;20037;-71
2022/09/26 05:03:20;;;;;;;19.70;7.47;;;;;;;-140.66;100.00;55571.53;5056723;28;20021;-71
2022/09/26 05:06:07;;;;;;;11.35;6.53;;;;;;;-140.66;100.00;55571.53;5056255;28;20450;-73
2022/09/26 05:08:53;;;;;;;12.05;6.95;;;;;;;-140.66;100.00;55571.53;5056164;28;20036;-71
2022/09/26 05:11:39;;;;;;;12.90;6.65;;;;;;;-140.66;100.00;55571.53;5055901;28;20024;-74
2022/09/26 05:14:25;;;;;;;11.27;6.43;;;;;;;-140.66;100.00;55571.53;5055953;28;20095;-73
2022/09/26 05:17:11;;;;;;;10.70;6.40;;;;;;;-140.66;100.00;55571.53;5056008;28;20123;-71
2022/09/26 05:19:57;;;;;;;10.13;6.22;;;;;;;-140.66;100.00;55571.53;5055377;28;20029;-73
2022/09/26 05:22:42;;;;;;;10.95;6.30;;;;;;;-140.66;100.00;55571.53;5055518;28;20446;-72
2022/09/26 05:28:35;;;;;;;15.10;7.10;;;;;;;-140.66;100.00;55571.53;5044711;28;20032;-71
2022/09/26 05:31:27;;;;;;;15.05;6.40;;;;;;;-140.66;100.00;55571.53;5031811;28;20032;-71
2022/09/26 05:34:14;;;;;;;9.82;6.60;;;;;;;-140.66;100.00;55571.53;5030937;28;20763;-73
2022/09/26 05:37:00;;;;;;;11.18;7.82;;;;;;;-140.66;100.00;55571.53;5034201;28;20025;-72
2022/09/26 05:42:50;;;;;;;14.88;8.73;;;;;;;-140.66;100.00;55571.53;5035186;28;20025;-72
2022/09/26 05:45:36;;;;;;;10.57;7.43;;;;;;;-140.66;100.00;55571.53;5036101;28;20040;-70
2022/09/26 05:48:22;;;;;;;9.68;6.60;;;;;;;-140.66;100.00;55571.53;5035678;28;20094;-69
2022/09/26 05:51:14;;;;;;;10.48;6.93;;;;;;;-140.66;100.00;55571.53;5036733;28;20037;-69
2022/09/26 05:54:00;;;;;;;12.25;6.80;;;;;;;-140.66;100.00;55571.53;5035704;28;20075;-71
2022/09/26 05:56:46;;;;;;;12.35;6.65;;;;;;;-140.66;100.00;55571.53;5035927;28;20053;-70
2022/09/26 05:59:32;;;;;;;10.27;6.32;;;;;;;-140.66;100.00;55571.53;5035749;28;20033;-70
2022/09/26 06:02:17;;;;;;;9.80;6.32;;;;;;;-140.66;100.00;55571.53;5036504;28;20025;-70
2022/09/26 06:05:03;;;;;;;9.85;6.82;;;;;;;-140.66;100.00;55571.53;5035351;28;20040;-69
2022/09/26 06:07:49;;;;;;;13.75;7.00;;;;;;;-140.66;100.00;55571.53;5036705;28;20113;-68
2022/09/26 06:10:39;;;;;;;11.00;7.32;;;;;;;-140.66;100.00;55571.53;5043240;28;20147;-69
2022/09/26 06:13:25;;;;;;;9.68;6.80;;;;;;;-140.66;100.00;55571.53;5045662;28;20104;-68
2022/09/26 06:16:14;;;;;;;8.57;6.30;;;;;;;-140.66;100.00;55571.53;5045337;28;20159;-69
2022/09/26 06:19:01;;;;;;;14.23;6.65;;;;;;;-140.66;100.00;55571.53;5043131;28;20029;-69
2022/09/26 06:21:47;;;;;;;16.75;6.72;;;;;;;-140.66;100.00;55571.53;5044614;28;20068;-70
2022/09/26 06:24:32;;;;;;;8.90;6.20;;;;;;;-140.66;100.00;55571.53;5044318;28;20371;-68
2022/09/26 06:27:19;;;;;;;9.07;5.95;;;;;;;-140.66;100.00;55571.53;5044361;28;20525;-68
2022/09/26 06:30:07;;;;;;;8.88;5.70;;;;;;;-140.66;100.00;55571.53;5028881;28;20358;-68
2022/09/26 06:32:53;;;;;;;13.80;6.45;;;;;;;-140.66;100.00;55571.53;5044244;28;20024;-69
2022/09/26 06:35:38;;;;;;;10.25;5.60;;;;;;;-140.66;100.00;55571.53;5043084;28;20029;-68
2022/09/26 06:38:24;;;;;;;13.52;7.13;;;;;;;-140.66;100.00;55571.53;5029295;28;20132;-69
2022/09/26 06:41:12;;;;;;;10.07;5.78;;;;;;;-140.66;100.00;55571.53;5043408;28;20057;-68
2022/09/26 06:43:58;;;;;;;8.85;6.10;;;;;;;-140.66;100.00;55571.53;5043806;28;20090;-69
2022/09/26 06:46:44;;;;;;;12.55;5.35;;;;;;;-140.66;100.00;55571.53;5044223;28;20037;-69
2022/09/26 06:49:29;;;;;;;12.52;5.38;;;;;;;-140.66;100.00;55571.53;5029264;28;20025;-68
2022/09/26 06:52:15;;;;;;;10.77;5.70;;;;;;;-140.66;100.00;55571.53;5043670;28;20446;-68
2022/09/26 06:55:03;;;;;;;14.18;5.65;;;;;;;-140.66;100.00;55571.53;5043561;28;20149;-69
2022/09/26 06:57:48;;;;;;;8.63;5.60;;;;;;;-140.66;100.00;55571.53;5044167;28;20044;-68
2022/09/26 07:00:34;;;;;;;9.32;6.10;;;;;;;-140.66;100.00;55571.53;5042102;28;20039;-69
2022/09/26 07:03:24;;;;;;;9.48;6.05;;;;;;;-140.66;100.00;55571.53;5044247;28;20032;-70
2022/09/26 07:06:09;;;;;;;8.93;6.05;;;;;;;-140.66;100.00;55571.53;5043111;28;20070;-70
2022/09/26 07:08:55;;;;;;;8.52;6.18;;;;;;;-140.66;100.00;55571.53;5043382;28;20108;-69
2022/09/26 07:11:45;;;;;;;8.05;5.55;;;;;;;-140.66;100.00;55571.53;5042031;28;20031;-69
2022/09/26 07:14:31;;;;;;;10.90;5.65;;;;;;;-140.66;100.00;55571.53;5043650;28;20035;-69
2022/09/26 07:17:17;;;;;;;7.35;5.60;;;;;;;-140.66;100.00;55571.53;5043584;28;20488;-69
2022/09/26 07:20:03;;;;;;;6.80;5.63;;;;;;;-140.66;100.00;55571.53;5041075;28;20445;-69
2022/09/26 07:22:49;;;;;;;7.55;5.88;;;;;;;-140.66;100.00;55571.53;5043570;28;20116;-69
2022/09/26 07:25:37;;;;;;;7.90;5.75;;;;;;;-140.66;100.00;55571.53;5042476;28;20052;-69
2022/09/26 07:28:24;;;;;;;7.53;5.35;;;;;;;-140.66;100.00;55571.53;5043353;28;20036;-69
2022/09/26 07:31:10;;;;;;;7.07;5.28;;;;;;;-140.66;100.00;55571.53;5028610;28;20056;-68
2022/09/26 07:33:56;;;;;;;8.48;5.30;;;;;;;-140.66;100.00;55571.53;5029538;28;20055;-68
2022/09/26 07:36:41;;;;;;;9.65;5.25;;;;;;;-140.66;100.00;55571.53;5043958;28;20055;-68
2022/09/26 07:39:27;;;;;;;9.25;4.70;;;;;;;-140.66;100.00;55571.53;5042423;28;20021;-69
2022/09/26 07:42:13;;;;;;;5.95;4.90;;;;;;;-140.66;100.00;55571.53;5043686;28;20044;-69
2022/09/26 07:44:58;;;;;;;8.68;5.50;;;;;;;-140.66;100.00;55571.53;5043593;28;20040;-70
2022/09/26 07:50:56;;;;;;;6.70;5.25;;;;;;;-140.66;100.00;55571.53;5042708;28;20056;-71
2022/09/26 07:53:42;;;;;;;7.47;5.35;;;;;;;-140.66;100.00;55571.53;5044011;28;20029;-69
2022/09/26 07:56:29;;;;;;;8.10;4.82;;;;;;;-140.66;100.00;55571.53;5044596;28;20060;-69
2022/09/26 07:59:15;;;;;;;8.98;5.57;;;;;;;-140.66;100.00;55571.53;5043067;28;20040;-68
2022/09/26 08:02:02;;;;;;;11.30;5.68;;;;;;;-140.66;100.00;55571.53;5029190;28;20060;-70
2022/09/26 08:04:48;;;;;;;7.55;5.97;;;;;;;-140.66;100.00;55571.53;5043767;28;20116;-69
2022/09/26 08:07:36;;;;;;;8.27;6.07;;;;;;;-140.66;100.00;55571.53;5043071;28;20033;-68
2022/09/26 08:10:23;;;;;;;10.52;6.25;;;;;;;-140.66;100.00;55571.53;5042076;28;20033;-69
2022/09/26 08:13:08;;;;;;;9.25;5.85;;;;;;;-140.66;100.00;55571.53;5031036;28;20064;-70
2022/09/26 08:16:00;;;;;;;8.00;5.70;;;;;;;-140.66;100.00;55571.53;5048019;28;20524;-73
2022/09/26 08:18:46;;;;;;;9.70;5.85;;;;;;;-140.66;100.00;55571.53;5047417;28;20124;-69
2022/09/26 08:21:32;;;;;;;8.45;5.63;;;;;;;-140.66;100.00;55571.53;5046306;28;20445;-69
2022/09/26 08:24:18;;;;;;;8.57;5.15;;;;;;;-140.66;100.00;55571.53;5047054;28;20072;-70
2022/09/26 08:27:04;;;;;;;13.65;8.25;;;;;;;-140.66;100.00;55571.53;5031149;28;20040;-69
2022/09/26 08:29:50;;;;;;;18.70;11.70;;;;;;;-140.66;100.00;55571.53;5045426;28;20044;-69
2022/09/26 08:32:36;;;;;;;11.18;7.30;;;;;;;-140.66;100.00;55571.53;5046539;28;20021;-70
2022/09/26 08:35:21;;;;;;;8.57;5.63;;;;;;;-140.66;100.00;55571.53;5032107;28;20114;-70
2022/09/26 08:38:08;;;;;;;8.40;5.60;;;;;;;-140.66;100.00;55571.53;5047335;28;20091;-70
2022/09/26 08:41:15;;;;;;;7.32;5.35;;;;;;;-140.66;100.00;55571.53;5031353;28;20115;-70
2022/09/26 08:44:10;;;;;;;10.07;5.65;;;;;;;-140.66;100.00;55571.53;5045337;28;20033;-70
2022/09/26 08:47:03;;;;;;;10.98;6.00;;;;;;;-140.66;100.00;55571.53;5046069;28;20033;-69
2022/09/26 08:50:06;;;;;;;12.60;7.63;;;;;;;-140.66;100.00;55571.53;5046526;28;20061;-70
2022/09/26 08:53:16;;;;;;;14.30;8.10;;;;;;;-140.66;100.00;55571.53;5046815;28;20052;-70
2022/09/26 08:56:12;;;;;;;11.10;5.60;;;;;;;-140.66;100.00;55571.53;5044761;28;20049;-69
2022/09/26 08:59:02;;;;;;;9.32;5.30;;;;;;;-140.66;100.00;55571.53;5033360;28;20033;-69
2022/09/26 09:01:50;;;;;;;5.43;4.60;;;;;;;-140.66;100.00;55571.53;5045410;28;20033;-69
2022/09/26 09:05:30;;;;;;;6.45;4.95;;;;;;;-140.66;100.00;55571.53;5045869;28;20438;-69
2022/09/26 09:08:23;;;;;;;6.32;4.82;;;;;;;-140.66;100.00;55571.53;5025614;28;20048;-69
2022/09/26 09:11:18;;;;;;;7.32;4.72;;;;;;;-140.66;100.00;55571.53;5043093;28;20825;-70
2022/09/26 09:14:19;;;;;;;7.75;4.93;;;;;;;-140.66;100.00;55571.53;5046662;28;20064;-70
2022/09/26 09:17:36;;;;;;;11.60;8.23;;;;;;;-140.66;100.00;55571.53;5043863;28;20036;-70
2022/09/26 09:20:37;;;;;;;5.28;4.57;;;;;;;-140.66;100.00;55571.53;5029689;28;20071;-70
2022/09/26 09:23:40;;;;;;;8.27;4.70;;;;;;;-140.66;100.00;55571.53;5031524;28;20107;-70
2022/09/26 09:26:36;;;;;;;7.97;4.90;;;;;;;-140.66;100.00;55571.53;5044981;28;20033;-70
2022/09/26 09:30:01;;;;;;;15.10;5.95;;;;;;;-140.66;100.00;55571.53;5046047;28;20120;-70
2022/09/26 09:33:00;;;;;;;7.18;5.00;;;;;;;-140.66;100.00;55571.53;5044953;28;20028;-72
2022/09/26 09:35:47;;;;;;;7.13;4.68;;;;;;;-140.66;100.00;55571.53;5030557;28;20075;-69
2022/09/26 09:38:37;;;;;;;5.28;4.10;;;;;;;-140.66;100.00;55571.53;5044930;28;20457;-69
2022/09/26 09:41:45;;;;;;;6.15;4.50;;;;;;;-140.66;100.00;55571.53;5044140;28;20033;-69
2022/09/26 09:44:49;;;;;;;7.22;4.53;;;;;;;-140.66;100.00;55571.53;5045549;28;20109;-70
2022/09/26 09:47:38;;;;;;;8.45;6.90;;;;;;;-140.66;100.00;55571.53;5045420;28;20446;-69
2022/09/26 09:50:59;;;;;;;7.38;6.68;;;;;;;-140.66;100.00;55571.53;5044087;28;20033;-69
2022/09/26 09:54:07;;;;;;;5.45;4.40;;;;;;;-140.66;100.00;55571.53;5042935;28;20053;-70
2022/09/26 09:57:35;;;;;;;8.20;4.20;;;;;;;-140.66;100.00;55571.53;5045668;28;20143;-68
2022/09/26 10:00:23;;;;;;;7.03;4.32;;;;;;;-140.66;100.00;55571.53;5043081;28;20474;-70
2022/09/26 10:03:15;;;;;;;6.88;5.20;;;;;;;-140.66;100.00;55571.53;5044085;28;20033;-69
2022/09/26 10:06:01;;;;;;;7.47;4.90;;;;;;;-140.66;100.00;55571.53;5043313;28;20511;-69
2022/09/26 10:08:49;;;;;;;6.28;4.57;;;;;;;-140.66;100.00;55571.53;5031432;28;20056;-71
2022/09/26 10:11:41;;;;;;;6.80;4.75;;;;;;;-140.66;100.00;55571.53;5028259;28;20025;-69
2022/09/26 10:14:34;;;;;;;6.38;4.30;;;;;;;-140.66;100.00;55571.53;5030343;28;20024;-69
2022/09/26 10:17:22;;;;;;;4.50;4.10;;;;;;;-140.66;100.00;55571.53;5044786;28;20056;-69
2022/09/26 10:20:51;;;;;;;7.32;4.57;;;;;;;-140.66;100.00;55571.53;5042993;28;20029;-70
2022/09/26 10:23:44;;;;;;;4.95;4.22;;;;;;;-140.66;100.00;55571.53;5043983;28;20156;-70
2022/09/26 10:26:35;;;;;;;7.05;4.05;;;;;;;-140.66;100.00;55571.53;5045417;28;20067;-69
2022/09/26 10:29:37;;;;;;;5.07;4.47;;;;;;;-140.66;100.00;55571.53;5019535;28;20103;-71
2022/09/26 10:32:22;;;;;;;5.00;4.03;;;;;;;-140.66;100.00;55571.53;5045840;28;20471;-70
2022/09/26 10:35:20;;;;;;;5.68;4.68;;;;;;;-140.66;100.00;55571.53;5043912;28;20056;-69
2022/09/26 10:38:17;;;;;;;9.48;4.75;;;;;;;-140.66;100.00;55571.53;5030693;28;20107;-69
2022/09/26 10:41:03;;;;;;;4.90;4.38;;;;;;;-140.66;100.00;55571.53;5043566;28;20039;-69
2022/09/26 10:43:54;;;;;;;6.03;4.65;;;;;;;-140.66;100.00;55571.53;5030574;28;20043;-69
2022/09/26 10:46:45;;;;;;;5.72;4.45;;;;;;;-140.66;100.00;55571.53;5045842;28;20143;-69
2022/09/26 10:49:38;;;;;;;7.60;4.07;;;;;;;-140.66;100.00;55571.53;5046368;28;20054;-69
2022/09/26 10:52:37;;;;;;;5.22;4.05;;;;;;;-140.66;100.00;55571.53;5043761;28;20051;-70
2022/09/26 10:55:38;;;;;;;4.80;3.92;;;;;;;-140.66;100.00;55571.53;5043759;28;20055;-69
2022/09/26 10:58:28;;;;;;;6.05;3.85;;;;;;;-140.66;100.00;55571.53;5029923;28;20059;-69
2022/09/26 11:01:26;;;;;;;6.13;4.10;;;;;;;-140.66;100.00;55571.53;5028400;28;20465;-69
2022/09/26 11:05:55;;;;;;;5.40;3.92;;;;;;;-140.66;100.00;55571.53;5029528;28;20421;-69
2022/09/26 11:07:32;;;;;;;16.30;4.45;;;;;;;-140.66;100.00;55571.53;5044843;28;21030;-69
2022/09/26 11:10:31;;;;;;;7.28;5.00;;;;;;;-140.66;100.00;55571.53;5028916;28;20035;-69
2022/09/26 11:13:20;;;;;;;5.45;3.90;;;;;;;-140.66;100.00;55571.53;5044043;28;20048;-70
2022/09/26 11:16:12;;;;;;;5.35;3.92;;;;;;;-140.66;100.00;55571.53;5043315;28;20032;-69
2022/09/26 11:19:23;;;;;;;7.90;5.18;;;;;;;-140.66;100.00;55571.53;5045409;28;20120;-70
2022/09/26 11:22:24;;;;;;;7.35;4.00;;;;;;;-140.66;100.00;55571.53;5043753;28;20032;-69
2022/09/26 11:25:13;;;;;;;6.07;3.97;;;;;;;-140.66;100.00;55571.53;5044431;28;20442;-70
2022/09/26 11:28:06;;;;;;;7.22;4.10;;;;;;;-140.66;100.00;55571.53;5043058;28;20116;-70
2022/09/26 11:30:57;;;;;;;6.53;4.00;;;;;;;-140.66;100.00;55571.53;5042819;28;20419;-70
2022/09/26 11:33:44;;;;;;;13.52;4.45;;;;;;;-140.66;100.00;55571.53;5043555;28;20037;-70
2022/09/26 11:36:38;;;;;;;5.78;3.78;;;;;;;-140.66;100.00;55571.53;5043890;28;20098;-70
2022/09/26 11:40:11;;;;;;;6.90;4.00;;;;;;;-140.66;100.00;55571.53;5044963;28;20120;-69
2022/09/26 11:43:24;;;;;;;6.20;4.00;;;;;;;-140.66;100.00;55571.53;5019782;28;20405;-69
2022/09/26 11:46:39;;;;;;;16.48;4.65;;;;;;;-140.66;100.00;55571.53;5043864;28;20445;-69
2022/09/26 11:49:49;;;;;;;7.97;3.80;;;;;;;-140.66;100.00;55571.53;5033758;28;20048;-69
2022/09/26 11:52:37;;;;;;;14.32;5.80;;;;;;;-140.66;100.00;55571.53;5032823;28;20020;-70
2022/09/26 11:55:41;;;;;;;3.92;3.50;;;;;;;-140.66;100.00;55571.53;5047929;28;20108;-69
2022/09/26 11:58:37;;;;;;;14.45;4.85;;;;;;;-140.66;100.00;55571.53;5047545;28;20037;-69
2022/09/26 12:01:22;;;;;;;9.00;4.20;;;;;;;-140.66;100.00;55571.53;5045902;28;20033;-69
2022/09/26 12:04:44;;;;;;;12.15;4.07;;;;;;;-140.66;100.00;55571.53;5032782;28;20040;-69
2022/09/26 12:07:45;;;;;;;9.73;3.53;;;;;;;-140.66;100.00;55571.53;5032733;28;20053;-69
2022/09/26 12:10:46;;;;;;;4.93;3.50;;;;;;;-140.66;100.00;55571.53;5047104;28;20029;-69
2022/09/26 12:13:46;;;;;;;6.80;4.05;;;;;;;-140.66;100.00;55571.53;5045255;28;20465;-72
2022/09/26 12:17:17;;;;;;;8.02;3.50;;;;;;;-140.66;100.00;55571.53;5049165;28;20128;-73
2022/09/26 12:20:23;;;;;;;22.92;4.72;;;;;;;-140.66;100.00;55571.53;5026642;28;20075;-70
2022/09/26 12:23:25;;;;;;;6.53;3.47;;;;;;;-140.66;100.00;55571.53;5031029;28;20180;-69
2022/09/26 12:26:48;;;;;;;4.57;3.53;;;;;;;-140.66;100.00;55571.53;5030883;28;20029;-71
2022/09/26 12:30:01;;;;;;;9.75;4.13;;;;;;;-140.66;100.00;55571.53;5030130;28;20040;-70
2022/09/26 12:33:15;;;;;;;10.73;5.43;;;;;;;-140.66;100.00;55571.53;5045881;28;20033;-68
2022/09/26 12:36:39;;;;;;;11.38;4.15;;;;;;;-140.66;100.00;55571.53;5047521;28;20415;-70
2022/09/26 12:39:43;;;;;;;5.22;3.78;;;;;;;-140.66;100.00;55571.53;5048104;28;20159;-70
2022/09/26 12:42:31;;;;;;;4.00;3.50;;;;;;;-140.66;100.00;55571.53;5047095;28;20052;-69
2022/09/26 12:45:40;;;;;;;5.18;3.60;;;;;;;-140.66;100.00;55571.53;5046346;28;20037;-69
2022/09/26 12:48:57;;;;;;;6.18;3.60;;;;;;;-140.66;100.00;55571.53;5047472;28;20124;-68
2022/09/26 12:51:51;;;;;;;4.63;3.40;;;;;;;-140.66;100.00;55571.53;5044909;28;20401;-69
2022/09/26 12:55:05;;;;;;;8.95;3.50;;;;;;;-140.66;100.00;55571.53;5045805;28;20400;-69
2022/09/26 12:58:02;;;;;;;8.32;3.60;;;;;;;-140.66;100.00;55571.53;5047364;28;20107;-68
2022/09/26 13:01:22;;;;;;;9.40;3.65;;;;;;;-140.66;100.00;55571.53;5029682;28;20095;-69
2022/09/26 13:04:16;;;;;;;3.38;3.08;;;;;;;-140.66;100.00;55571.53;5045789;28;20106;-68
2022/09/26 13:07:14;;;;;;;5.20;3.60;;;;;;;-140.66;100.00;55571.53;5044754;28;20024;-70
2022/09/26 13:10:18;;;;;;;8.15;3.72;;;;;;;-140.66;100.00;55571.53;5044913;28;20021;-70
2022/09/26 13:13:23;;;;;;;8.60;4.60;;;;;;;-140.66;100.00;55571.53;5047464;28;20511;-69